createdAt,value
2023-05-15T00:02:18.908Z,6.90
2023-05-15T00:04:45.837Z,6.70
2023-05-15T00:07:12.690Z,6.70
2023-05-15T00:09:39.425Z,6.50
2023-05-15T00:12:06.748Z,7.10
2023-05-15T00:14:33.653Z,6.50
2023-05-15T00:17:00.468Z,6.50
2023-05-15T00:19:27.308Z,6.70
2023-05-15T00:21:54.108Z,6.50
2023-05-15T00:24:21.704Z,7.10
2023-05-15T00:26:48.543Z,6.60
2023-05-15T00:29:15.374Z,6.90
2023-05-15T00:31:42.189Z,7.30
2023-05-15T00:34:09.043Z,7.30
2023-05-15T00:36:37.683Z,6.50
2023-05-15T00:39:05.199Z,6.80
2023-05-15T00:41:32.681Z,6.40
2023-05-15T00:44:00.723Z,6.60
2023-05-15T00:46:28.090Z,6.70
2023-05-15T00:49:47.458Z,7.30
2023-05-15T00:52:14.336Z,7.60
2023-05-15T00:54:41.191Z,7.40
2023-05-15T00:57:08.610Z,7.00
2023-05-15T00:59:36.582Z,7.00
2023-05-15T01:02:04.245Z,6.10
2023-05-15T01:04:31.651Z,6.40
2023-05-15T01:06:58.462Z,7.20
2023-05-15T01:09:27.681Z,7.70
2023-05-15T01:11:55.075Z,6.70
2023-05-15T01:14:21.945Z,7.30
2023-05-15T01:16:48.739Z,6.50
2023-05-15T01:19:15.805Z,7.20
2023-05-15T01:22:05.187Z,6.80
2023-05-15T01:24:51.167Z,6.80
2023-05-15T01:27:37.330Z,7.20
2023-05-15T01:30:22.555Z,7.70
2023-05-15T01:33:17.341Z,7.60
2023-05-15T01:35:47.280Z,7.40
2023-05-15T01:38:33.763Z,6.30
2023-05-15T01:41:06.772Z,7.70
2023-05-15T01:43:33.688Z,7.60
2023-05-15T01:46:01.574Z,7.00
2023-05-15T01:48:28.475Z,7.30
2023-05-15T01:50:58.208Z,7.40
2023-05-15T01:53:25.466Z,7.10
2023-05-15T01:55:52.390Z,7.10
2023-05-15T01:58:19.163Z,7.80
2023-05-15T02:00:45.924Z,8.10
2023-05-15T02:03:12.804Z,8.20
2023-05-15T02:05:40.801Z,7.70
2023-05-15T02:08:07.533Z,7.90
2023-05-15T02:10:34.359Z,7.10
2023-05-15T02:13:01.102Z,8.60
2023-05-15T02:15:28.460Z,8.10
2023-05-15T02:17:55.321Z,8.00
2023-05-15T02:20:22.171Z,8.00
2023-05-15T02:22:48.949Z,8.70
2023-05-15T02:25:16.151Z,8.20
2023-05-15T02:27:48.786Z,8.80
2023-05-15T02:30:35.649Z,8.90
2023-05-15T02:33:20.842Z,8.20
2023-05-15T02:36:04.034Z,9.10
2023-05-15T02:38:45.201Z,8.00
2023-05-15T02:41:12.908Z,9.10
2023-05-15T02:43:39.917Z,8.70
2023-05-15T02:46:07.693Z,9.10
2023-05-15T02:48:35.773Z,8.60
2023-05-15T02:51:02.546Z,10.10
2023-05-15T02:53:29.472Z,8.70
2023-05-15T02:55:56.350Z,8.10
2023-05-15T02:58:23.173Z,8.80
2023-05-15T03:00:50.029Z,8.40
2023-05-15T03:03:16.894Z,8.40
2023-05-15T03:05:43.646Z,8.30
2023-05-15T03:08:10.452Z,9.40
2023-05-15T03:10:37.270Z,9.30
2023-05-15T03:13:04.070Z,9.40
2023-05-15T03:15:30.863Z,9.50
2023-05-15T03:17:57.929Z,10.20
2023-05-15T03:20:24.974Z,10.20
2023-05-15T03:22:51.755Z,9.80
2023-05-15T03:25:18.609Z,8.90
2023-05-15T03:27:45.381Z,9.50
2023-05-15T03:30:12.387Z,10.00
2023-05-15T03:32:39.213Z,10.00
2023-05-15T03:35:06.589Z,9.30
2023-05-15T03:37:33.400Z,9.00
2023-05-15T03:40:00.200Z,9.70
2023-05-15T03:42:28.130Z,9.60
2023-05-15T03:44:56.231Z,10.30
2023-05-15T03:47:23.412Z,10.40
2023-05-15T03:49:52.904Z,10.60
2023-05-15T03:52:19.705Z,10.90
2023-05-15T03:54:46.648Z,10.50
2023-05-15T03:57:13.438Z,10.60
2023-05-15T03:59:40.226Z,10.00
2023-05-15T04:02:07.135Z,9.80
2023-05-15T04:04:33.946Z,7.10
2023-05-15T04:07:01.152Z,6.70
2023-05-15T04:09:27.994Z,7.30
2023-05-15T04:11:54.772Z,7.20
2023-05-15T04:14:21.502Z,9.80
2023-05-15T04:16:48.469Z,9.80
2023-05-15T04:19:15.828Z,9.10
2023-05-15T04:21:42.681Z,9.90
2023-05-15T04:24:09.470Z,10.00
2023-05-15T04:26:36.812Z,10.80
2023-05-15T04:29:04.892Z,10.00
2023-05-15T04:31:32.237Z,9.60
2023-05-15T04:33:59.298Z,13.10
2023-05-15T04:36:26.030Z,9.60
2023-05-15T04:38:52.856Z,9.20
2023-05-15T04:41:19.679Z,8.70
2023-05-15T04:43:46.514Z,8.10
2023-05-15T04:46:13.347Z,9.50
2023-05-15T04:48:40.150Z,9.00
2023-05-15T04:51:07.717Z,8.80
2023-05-15T04:53:34.562Z,7.70
2023-05-15T04:56:01.451Z,8.40
2023-05-15T04:58:28.234Z,9.20
2023-05-15T05:00:55.002Z,8.50
2023-05-15T05:03:21.873Z,7.60
2023-05-15T05:05:49.188Z,7.90
2023-05-15T05:08:16.050Z,7.40
2023-05-15T05:10:42.903Z,7.60
2023-05-15T05:13:09.673Z,7.40
2023-05-15T05:15:37.328Z,6.60
2023-05-15T05:18:04.601Z,6.30
2023-05-15T05:20:31.415Z,6.50
2023-05-15T05:22:58.171Z,6.20
2023-05-15T05:25:25.304Z,5.20
2023-05-15T05:27:52.453Z,6.30
2023-05-15T05:30:19.241Z,6.40
2023-05-15T05:32:46.039Z,6.20
2023-05-15T05:35:12.837Z,4.70
2023-05-15T05:37:41.229Z,5.00
2023-05-15T05:40:09.395Z,4.40
2023-05-15T05:42:36.172Z,5.10
2023-05-15T05:45:03.003Z,5.10
2023-05-15T05:47:29.890Z,4.40
2023-05-15T05:49:56.687Z,4.40
2023-05-15T05:52:23.583Z,4.60
2023-05-15T05:54:50.429Z,4.70
2023-05-15T05:57:17.209Z,4.20
2023-05-15T05:59:44.041Z,5.20
2023-05-15T06:02:11.561Z,5.30
2023-05-15T06:04:38.608Z,5.10
2023-05-15T06:07:05.442Z,5.80
2023-05-15T06:09:32.848Z,6.00
2023-05-15T06:12:00.790Z,7.20
2023-05-15T06:14:27.585Z,7.80
2023-05-15T06:16:54.505Z,7.20
2023-05-15T06:19:22.393Z,7.50
2023-05-15T06:21:49.762Z,7.20
2023-05-15T06:24:16.552Z,7.20
2023-05-15T06:26:43.286Z,6.40
2023-05-15T06:29:10.166Z,6.00
2023-05-15T06:31:36.933Z,5.20
2023-05-15T06:34:03.674Z,6.70
2023-05-15T06:36:30.437Z,5.80
2023-05-15T06:38:57.132Z,5.60
2023-05-15T06:41:23.903Z,5.70
2023-05-15T06:43:50.988Z,5.90
2023-05-15T06:46:19.243Z,6.10
2023-05-15T06:48:49.541Z,6.00
2023-05-15T06:51:16.373Z,5.00
2023-05-15T06:53:43.153Z,5.30
2023-05-15T06:56:09.991Z,5.10
2023-05-15T06:58:36.805Z,5.20
2023-05-15T07:01:04.084Z,5.60
2023-05-15T07:03:30.870Z,5.80
2023-05-15T07:05:57.619Z,5.30
2023-05-15T07:08:24.422Z,5.40
2023-05-15T07:10:51.525Z,5.70
2023-05-15T07:13:18.353Z,5.40
2023-05-15T07:15:45.316Z,5.60
2023-05-15T07:18:12.261Z,5.50
2023-05-15T07:20:39.634Z,5.50
2023-05-15T07:23:06.659Z,5.90
2023-05-15T07:25:46.093Z,5.50
2023-05-15T07:28:18.331Z,4.50
2023-05-15T07:30:45.446Z,4.50
2023-05-15T07:33:12.233Z,4.10
2023-05-15T07:35:38.994Z,4.10
2023-05-15T07:38:05.853Z,4.10
2023-05-15T07:40:33.138Z,4.30
2023-05-15T07:43:00.142Z,4.30
2023-05-15T07:45:27.286Z,4.90
2023-05-15T07:47:54.516Z,4.30
2023-05-15T07:50:21.460Z,4.40
2023-05-15T07:52:48.224Z,3.90
2023-05-15T07:55:15.092Z,4.00
2023-05-15T07:57:42.028Z,4.20
2023-05-15T08:00:12.911Z,4.50
2023-05-15T08:02:41.168Z,4.80
2023-05-15T08:05:08.374Z,4.20
2023-05-15T08:07:35.671Z,3.80
2023-05-15T08:10:04.516Z,4.20
2023-05-15T08:12:31.315Z,4.60
2023-05-15T08:14:58.158Z,3.80
2023-05-15T08:17:25.063Z,4.20
2023-05-15T08:19:52.493Z,3.90
2023-05-15T08:22:19.367Z,4.10
2023-05-15T08:24:46.085Z,4.10
2023-05-15T08:27:12.928Z,4.00
2023-05-15T08:29:40.198Z,3.40
2023-05-15T08:32:08.706Z,3.60
2023-05-15T08:34:35.633Z,3.50
2023-05-15T08:37:02.430Z,3.80
2023-05-15T08:39:29.191Z,4.20
2023-05-15T08:42:06.073Z,3.60
2023-05-15T08:44:32.870Z,3.90
2023-05-15T08:46:59.809Z,3.40
2023-05-15T08:49:54.493Z,3.60
2023-05-15T08:52:21.473Z,3.80
2023-05-15T08:54:48.614Z,3.60
2023-05-15T08:57:15.752Z,3.80
2023-05-15T08:59:42.484Z,3.70
2023-05-15T09:02:09.490Z,3.60
2023-05-15T09:04:36.447Z,3.50
2023-05-15T09:07:03.623Z,3.10
2023-05-15T09:09:30.958Z,3.30
2023-05-15T09:11:57.730Z,3.80
2023-05-15T09:14:24.455Z,3.90
2023-05-15T09:16:53.531Z,4.10
2023-05-15T09:19:21.991Z,3.80
2023-05-15T09:21:49.597Z,4.00
2023-05-15T09:24:20.029Z,3.70
2023-05-15T09:26:47.858Z,3.40
2023-05-15T09:29:18.926Z,3.70
2023-05-15T09:31:49.082Z,3.40
2023-05-15T09:34:16.055Z,3.50
2023-05-15T09:36:45.053Z,3.80
2023-05-15T09:39:12.276Z,4.20
2023-05-15T09:41:42.502Z,4.00
2023-05-15T09:44:21.244Z,3.60
2023-05-15T09:46:48.863Z,3.90
2023-05-15T09:49:15.968Z,4.20
2023-05-15T09:51:44.361Z,3.70
2023-05-15T09:54:15.903Z,3.80
2023-05-15T09:56:47.178Z,3.40
2023-05-15T09:59:18.348Z,3.40
2023-05-15T10:01:46.507Z,2.80
2023-05-15T10:04:14.019Z,3.20
2023-05-15T10:06:43.180Z,2.90
2023-05-15T10:09:11.364Z,2.90
2023-05-15T10:11:40.431Z,3.20
2023-05-15T10:14:09.272Z,3.30
2023-05-15T10:16:36.838Z,3.20
2023-05-15T10:19:05.365Z,3.60
2023-05-15T10:21:33.900Z,3.40
2023-05-15T10:24:01.316Z,3.30
2023-05-15T10:26:39.039Z,3.50
2023-05-15T10:29:08.261Z,3.40
2023-05-15T10:31:36.529Z,3.80
2023-05-15T10:34:06.759Z,3.60
2023-05-15T10:36:34.268Z,3.20
2023-05-15T10:39:02.130Z,3.60
2023-05-15T10:41:29.595Z,3.60
2023-05-15T10:43:58.593Z,3.80
2023-05-15T10:46:26.445Z,3.90
2023-05-15T10:48:53.422Z,4.10
2023-05-15T10:51:28.196Z,3.90
2023-05-15T10:53:56.067Z,3.60
2023-05-15T10:56:27.301Z,4.30
2023-05-15T10:58:55.148Z,3.30
2023-05-15T11:01:32.846Z,4.10
2023-05-15T11:04:06.815Z,4.20
2023-05-15T11:06:34.086Z,3.50
2023-05-15T11:09:37.408Z,3.70
2023-05-15T11:12:06.110Z,3.90
2023-05-15T11:14:36.157Z,4.30
2023-05-15T11:17:04.556Z,4.10
2023-05-15T11:19:33.419Z,3.40
2023-05-15T11:22:15.910Z,3.50
2023-05-15T11:24:53.436Z,3.70
2023-05-15T11:27:22.459Z,3.70
2023-05-15T11:30:22.539Z,3.50
2023-05-15T11:32:57.281Z,3.40
2023-05-15T11:35:45.113Z,3.40
2023-05-15T11:38:39.879Z,3.10
2023-05-15T11:41:17.566Z,4.00
2023-05-15T11:43:44.338Z,3.50
2023-05-15T11:46:12.774Z,3.10
2023-05-15T11:48:39.814Z,3.50
2023-05-15T11:51:31.728Z,3.70
2023-05-15T11:53:58.586Z,3.30
2023-05-15T11:56:29.897Z,3.30
2023-05-15T11:58:59.042Z,3.10
2023-05-15T12:01:25.800Z,3.80
2023-05-15T12:03:54.760Z,3.30
2023-05-15T12:06:21.978Z,3.70
2023-05-15T12:08:52.877Z,3.60
2023-05-15T12:11:24.087Z,3.30
2023-05-15T12:13:52.847Z,3.20
2023-05-15T12:16:23.671Z,4.20
2023-05-15T12:18:50.689Z,3.70
2023-05-15T12:21:17.551Z,3.40
2023-05-15T12:24:06.323Z,3.70
2023-05-15T12:26:34.759Z,3.60
2023-05-15T12:29:02.466Z,3.20
2023-05-15T12:31:29.632Z,3.40
2023-05-15T12:33:56.728Z,3.20
2023-05-15T12:36:23.536Z,3.60
2023-05-15T12:38:50.786Z,3.40
2023-05-15T12:41:19.999Z,3.20
2023-05-15T12:43:46.938Z,3.40
2023-05-15T12:46:14.403Z,3.00
2023-05-15T12:48:41.347Z,3.60
2023-05-15T12:51:08.384Z,3.30
2023-05-15T12:53:35.347Z,3.60
2023-05-15T12:56:02.212Z,3.60
2023-05-15T12:58:29.123Z,3.30
2023-05-15T13:00:56.984Z,3.10
2023-05-15T13:03:24.510Z,3.20
2023-05-15T13:07:36.204Z,3.60
2023-05-15T13:10:06.803Z,4.20
2023-05-15T13:12:45.370Z,3.30
2023-05-15T13:15:32.580Z,4.30
2023-05-15T13:18:00.670Z,3.60
2023-05-15T13:20:48.737Z,3.40
2023-05-15T13:23:16.945Z,3.30
2023-05-15T13:25:44.152Z,3.50
2023-05-15T13:28:11.085Z,3.50
2023-05-15T13:30:41.622Z,3.30
2023-05-15T13:33:09.541Z,3.30
2023-05-15T13:35:36.942Z,3.60
2023-05-15T13:38:04.394Z,3.80
2023-05-15T13:40:33.556Z,3.60
2023-05-15T13:43:00.397Z,3.40
2023-05-15T13:45:27.258Z,3.30
2023-05-15T13:47:55.237Z,3.50
2023-05-15T13:50:22.061Z,3.50
2023-05-15T13:52:49.033Z,3.50
2023-05-15T13:55:16.812Z,3.60
2023-05-15T13:57:43.760Z,3.40
2023-05-15T14:00:13.268Z,3.30
2023-05-15T14:02:41.162Z,3.50
2023-05-15T14:05:09.360Z,3.90
2023-05-15T14:07:36.188Z,3.70
2023-05-15T14:10:06.325Z,3.60
2023-05-15T14:12:33.321Z,3.80
2023-05-15T14:15:00.769Z,3.80
2023-05-15T14:17:28.211Z,3.30
2023-05-15T14:19:55.114Z,2.70
2023-05-15T14:22:25.050Z,3.00
2023-05-15T14:24:52.921Z,2.90
2023-05-15T14:27:19.810Z,3.20
2023-05-15T14:29:48.419Z,3.00
2023-05-15T14:32:16.281Z,2.80
2023-05-15T14:34:43.334Z,2.80
2023-05-15T14:37:10.221Z,3.70
2023-05-15T14:39:37.232Z,4.10
2023-05-15T14:42:04.273Z,3.70
2023-05-15T14:44:31.086Z,3.50
2023-05-15T14:47:12.886Z,3.90
2023-05-15T14:49:39.831Z,3.30
2023-05-15T14:52:10.159Z,3.20
2023-05-15T14:54:37.817Z,4.00
2023-05-15T14:57:04.873Z,3.60
2023-05-15T14:59:31.713Z,3.70
2023-05-15T15:01:58.638Z,3.80
2023-05-15T15:04:26.926Z,3.50
2023-05-15T15:06:57.109Z,4.40
2023-05-15T15:09:25.237Z,2.90
2023-05-15T15:11:52.830Z,3.40
2023-05-15T15:14:20.033Z,2.60
2023-05-15T15:16:47.750Z,3.00
2023-05-15T15:19:16.773Z,2.90
2023-05-15T15:21:45.121Z,3.00
2023-05-15T15:24:12.100Z,3.10
2023-05-15T15:26:40.105Z,3.70
2023-05-15T15:29:07.327Z,3.60
2023-05-15T15:31:34.226Z,3.90
2023-05-15T15:34:03.718Z,3.00
2023-05-15T15:36:32.483Z,3.00
2023-05-15T15:38:59.312Z,3.50
2023-05-15T15:41:26.164Z,3.50
2023-05-15T15:43:53.930Z,3.20
2023-05-15T15:46:20.827Z,3.30
2023-05-15T15:48:48.607Z,3.00
2023-05-15T15:51:16.399Z,3.00
2023-05-15T15:53:43.365Z,3.20
2023-05-15T15:56:10.141Z,3.30
2023-05-15T15:58:37.240Z,3.50
2023-05-15T16:01:04.276Z,3.30
2023-05-15T16:03:31.629Z,3.80
2023-05-15T16:06:00.349Z,3.50
2023-05-15T16:08:27.596Z,3.80
2023-05-15T16:10:55.186Z,3.80
2023-05-15T16:13:22.192Z,4.20
2023-05-15T16:15:51.128Z,4.00
2023-05-15T16:18:17.974Z,4.40
2023-05-15T16:20:45.151Z,4.50
2023-05-15T16:23:15.204Z,4.10
2023-05-15T16:25:43.220Z,4.50
2023-05-15T16:28:10.380Z,4.00
2023-05-15T16:30:48.021Z,4.30
2023-05-15T16:33:17.688Z,4.20
2023-05-15T16:35:45.055Z,4.30
2023-05-15T16:38:11.911Z,4.70
2023-05-15T16:40:39.143Z,3.60
2023-05-15T16:43:06.113Z,4.10
2023-05-15T16:45:33.038Z,3.60
2023-05-15T16:48:00.129Z,3.70
2023-05-15T16:50:27.374Z,4.20
2023-05-15T16:52:54.399Z,4.00
2023-05-15T16:55:22.003Z,3.70
2023-05-15T16:57:48.953Z,4.00
2023-05-15T17:00:17.084Z,3.70
2023-05-15T17:02:45.874Z,4.50
2023-05-15T17:05:14.172Z,4.20
2023-05-15T17:07:42.104Z,4.00
2023-05-15T17:10:11.145Z,3.90
2023-05-15T17:12:38.389Z,4.20
2023-05-15T17:15:09.562Z,4.10
2023-05-15T17:17:36.721Z,3.60
2023-05-15T17:20:06.168Z,3.80
2023-05-15T17:22:32.962Z,3.70
2023-05-15T17:25:00.521Z,3.70
2023-05-15T17:27:28.607Z,4.10
2023-05-15T17:29:55.481Z,3.30
2023-05-15T17:32:23.165Z,3.50
2023-05-15T17:34:52.708Z,3.50
2023-05-15T17:37:20.959Z,3.20
2023-05-15T17:39:48.991Z,3.30
2023-05-15T17:42:16.058Z,3.60
2023-05-15T17:44:43.311Z,4.60
2023-05-15T17:47:10.405Z,3.60
2023-05-15T17:49:38.096Z,3.10
2023-05-15T17:52:06.219Z,3.30
2023-05-15T17:54:33.239Z,2.70
2023-05-15T17:57:00.408Z,3.60
2023-05-15T17:59:27.614Z,3.10
2023-05-15T18:01:54.999Z,3.50
2023-05-15T18:04:22.076Z,3.70
2023-05-15T18:06:50.188Z,3.30
2023-05-15T18:09:17.885Z,3.40
2023-05-15T18:11:44.679Z,3.80
2023-05-15T18:14:11.536Z,3.20
2023-05-15T18:16:38.680Z,3.40
2023-05-15T18:19:05.639Z,3.40
2023-05-15T18:21:33.745Z,3.20
2023-05-15T18:24:01.970Z,4.00
2023-05-15T18:26:31.171Z,3.50
2023-05-15T18:28:57.970Z,3.00
2023-05-15T18:31:25.055Z,3.70
2023-05-15T18:33:52.744Z,3.10
2023-05-15T18:36:19.528Z,3.30
2023-05-15T18:38:46.342Z,3.50
2023-05-15T18:41:13.204Z,2.90
2023-05-15T18:43:40.001Z,3.10
2023-05-15T18:46:06.784Z,3.60
2023-05-15T18:48:33.507Z,3.50
2023-05-15T18:51:00.302Z,3.20
2023-05-15T18:53:27.140Z,3.60
2023-05-15T18:55:53.875Z,3.40
2023-05-15T18:58:20.720Z,3.40
2023-05-15T19:00:47.703Z,3.00
2023-05-15T19:03:14.817Z,3.40
2023-05-15T19:05:41.799Z,3.30
2023-05-15T19:08:08.716Z,3.90
2023-05-15T19:10:35.618Z,3.80
2023-05-15T19:13:02.398Z,3.20
2023-05-15T19:15:29.282Z,3.70
2023-05-15T19:17:57.761Z,3.40
2023-05-15T19:20:26.018Z,3.10
2023-05-15T19:22:53.038Z,3.50
2023-05-15T19:25:20.206Z,3.80
2023-05-15T19:27:47.070Z,3.50
2023-05-15T19:30:14.119Z,3.60
2023-05-15T19:32:41.633Z,3.20
2023-05-15T19:35:10.439Z,3.50
2023-05-15T19:37:37.706Z,3.70
2023-05-15T19:40:06.108Z,3.10
2023-05-15T19:42:33.148Z,3.70
2023-05-15T19:45:00.118Z,3.30
2023-05-15T19:47:27.482Z,3.20
2023-05-15T19:49:54.486Z,3.30
2023-05-15T19:52:21.346Z,3.10
2023-05-15T19:54:48.078Z,3.20
2023-05-15T19:57:15.505Z,3.20
2023-05-15T19:59:42.303Z,3.00
2023-05-15T20:02:10.667Z,3.50
2023-05-15T20:04:37.732Z,3.30
2023-05-15T20:07:04.771Z,2.90
2023-05-15T20:09:31.593Z,3.20
2023-05-15T20:11:58.441Z,3.10
2023-05-15T20:14:25.779Z,3.40
2023-05-15T20:16:52.636Z,3.40
2023-05-15T20:19:22.022Z,3.60
2023-05-15T20:21:49.187Z,3.40
2023-05-15T20:24:17.551Z,3.20
2023-05-15T20:26:44.504Z,2.80
2023-05-15T20:29:11.410Z,3.40
2023-05-15T20:31:40.571Z,2.90
2023-05-15T20:34:08.605Z,3.40
2023-05-15T20:36:36.100Z,3.30
2023-05-15T20:39:05.942Z,2.90
2023-05-15T20:41:37.208Z,3.40
2023-05-15T20:44:04.755Z,2.90
2023-05-15T20:46:32.020Z,3.30
2023-05-15T20:48:59.160Z,2.80
2023-05-15T20:51:25.957Z,3.10
2023-05-15T20:53:52.827Z,3.30
2023-05-15T20:56:19.639Z,3.10
2023-05-15T20:58:46.483Z,3.00
2023-05-15T21:01:13.553Z,3.60
2023-05-15T21:03:40.869Z,3.20
2023-05-15T21:06:08.480Z,3.30
2023-05-15T21:08:35.536Z,3.60
2023-05-15T21:11:02.415Z,3.50
2023-05-15T21:13:29.432Z,3.60
2023-05-15T21:15:56.283Z,3.50
2023-05-15T21:18:23.886Z,3.60
2023-05-15T21:20:50.676Z,4.50
2023-05-15T21:23:18.571Z,3.90
2023-05-15T21:25:45.336Z,3.30
2023-05-15T21:28:13.019Z,3.50
2023-05-15T21:30:39.878Z,3.60
2023-05-15T21:33:06.726Z,3.20
2023-05-15T21:35:33.712Z,3.60
2023-05-15T21:38:00.796Z,3.50
2023-05-15T21:40:27.844Z,3.10
2023-05-15T21:42:54.989Z,3.10
2023-05-15T21:45:21.926Z,3.50
2023-05-15T21:47:48.892Z,3.20
2023-05-15T21:50:15.842Z,3.50
2023-05-15T21:52:42.614Z,3.60
2023-05-15T21:55:09.661Z,3.40
2023-05-15T21:57:36.586Z,3.70
2023-05-15T22:00:04.339Z,3.50
2023-05-15T22:02:32.590Z,4.30
2023-05-15T22:04:59.415Z,3.50
2023-05-15T22:07:26.319Z,4.70
2023-05-15T22:09:53.434Z,4.10
2023-05-15T22:12:20.220Z,3.50
2023-05-15T22:14:58.298Z,3.50
2023-05-15T22:17:27.169Z,3.30
2023-05-15T22:19:54.223Z,3.70
2023-05-15T22:22:21.095Z,3.70
2023-05-15T22:24:48.009Z,3.60
2023-05-15T22:27:16.826Z,3.40
2023-05-15T22:29:43.748Z,3.30
2023-05-15T22:32:10.823Z,3.10
2023-05-15T22:34:37.626Z,3.50
2023-05-15T22:37:04.602Z,3.50
2023-05-15T22:39:31.411Z,3.00
2023-05-15T22:41:58.264Z,3.40
2023-05-15T22:44:25.031Z,3.30
2023-05-15T22:46:52.408Z,3.80
2023-05-15T22:49:25.451Z,3.40
2023-05-15T22:54:22.078Z,3.60
2023-05-15T22:56:53.461Z,3.80
2023-05-15T22:59:21.005Z,3.70
2023-05-15T23:01:49.178Z,3.30
2023-05-15T23:04:16.956Z,4.10
2023-05-15T23:06:43.928Z,3.70
2023-05-15T23:09:10.741Z,3.90
2023-05-15T23:11:38.050Z,3.70
2023-05-15T23:14:04.959Z,3.60
2023-05-15T23:16:31.906Z,3.30
2023-05-15T23:18:58.830Z,3.20
2023-05-15T23:21:26.232Z,3.00
2023-05-15T23:23:53.232Z,3.60
2023-05-15T23:26:20.091Z,3.90
2023-05-15T23:28:47.273Z,2.90
2023-05-15T23:31:14.219Z,3.10
2023-05-15T23:33:41.249Z,3.50
2023-05-15T23:36:08.991Z,3.30
2023-05-15T23:38:35.869Z,3.70
2023-05-15T23:41:02.700Z,3.40
2023-05-15T23:43:29.768Z,3.20
2023-05-15T23:45:56.546Z,3.40
2023-05-15T23:48:23.369Z,3.50
2023-05-15T23:50:50.190Z,3.00
2023-05-15T23:53:16.948Z,3.30
2023-05-15T23:55:43.801Z,3.30
2023-05-15T23:58:10.899Z,3.20
